sensor_id;sensor_type;location;lat;lon;timestamp;pressure;altitude;pressure_sealevel;temperature;humidity
3832;BME280;12460;42.662;23.288;2023-05-01T00:14:55;94512.13;;;13.90;54.53
3832;BME280;12460;42.662;23.288;2023-05-01T00:30:00;94514.97;;;13.71;55.37
3832;BME280;12460;42.662;23.288;2023-05-01T00:45:06;94519.69;;;13.50;55.71
3832;BME280;12460;42.662;23.288;2023-05-01T01:00:11;94531.59;;;13.48;56.58
3832;BME280;12460;42.662;23.288;2023-05-01T01:15:27;94533.75;;;13.30;56.77
3832;BME280;12460;42.662;23.288;2023-05-01T01:30:46;94540.13;;;12.95;57.08
3832;BME280;12460;42.662;23.288;2023-05-01T01:45:59;94554.91;;;12.76;57.84
3832;BME280;12460;42.662;23.288;2023-05-01T02:01:05;94549.75;;;12.65;58.12
3832;BME280;12460;42.662;23.288;2023-05-01T02:16:11;94536.53;;;12.58;58.61
3832;BME280;12460;42.662;23.288;2023-05-01T02:31:17;94537.31;;;12.41;59.50
3832;BME280;12460;42.662;23.288;2023-05-01T02:46:24;94541.75;;;12.35;59.47
3832;BME280;12460;42.662;23.288;2023-05-01T03:01:31;94540.59;;;12.21;60.01
3832;BME280;12460;42.662;23.288;2023-05-01T03:16:36;94557.91;;;12.17;60.21
3832;BME280;12460;42.662;23.288;2023-05-01T03:31:40;94555.13;;;12.00;61.01
3832;BME280;12460;42.662;23.288;2023-05-01T03:46:45;94581.91;;;11.25;64.20
3832;BME280;12460;42.662;23.288;2023-05-01T04:01:56;94596.53;;;15.49;53.57
3832;BME280;12460;42.662;23.288;2023-05-01T04:17:04;94600.25;;;18.62;45.69
3832;BME280;12460;42.662;23.288;2023-05-01T04:32:12;94595.13;;;21.26;41.29
3832;BME280;12460;42.662;23.288;2023-05-01T04:47:16;94598.59;;;22.48;38.39
3832;BME280;12460;42.662;23.288;2023-05-01T05:02:21;94599.69;;;22.89;37.04
3832;BME280;12460;42.662;23.288;2023-05-01T05:17:26;94631.44;;;21.98;38.00
3832;BME280;12460;42.662;23.288;2023-05-01T05:32:31;94647.34;;;19.89;41.76
3832;BME280;12460;42.662;23.288;2023-05-01T05:47:36;94646.22;;;22.55;37.52
3832;BME280;12460;42.662;23.288;2023-05-01T06:02:41;94646.44;;;24.74;34.56
3832;BME280;12460;42.662;23.288;2023-05-01T06:17:46;94654.63;;;25.88;32.38
3832;BME280;12460;42.662;23.288;2023-05-01T06:32:50;94649.81;;;26.91;30.67
3832;BME280;12460;42.662;23.288;2023-05-01T06:47:56;94652.19;;;28.12;29.28
3832;BME280;12460;42.662;23.288;2023-05-01T07:03:01;94661.91;;;28.94;27.82
3832;BME280;12460;42.662;23.288;2023-05-01T07:18:06;94661.31;;;28.00;28.42
3832;BME280;12460;42.662;23.288;2023-05-01T07:33:12;94670.78;;;28.34;27.25
3832;BME280;12460;42.662;23.288;2023-05-01T07:48:16;94672.69;;;27.94;28.41
3832;BME280;12460;42.662;23.288;2023-05-01T08:03:21;94663.69;;;28.42;27.18
3832;BME280;12460;42.662;23.288;2023-05-01T08:18:26;94659.31;;;26.96;27.68
3832;BME280;12460;42.662;23.288;2023-05-01T08:33:30;94665.16;;;27.81;27.78
3832;BME280;12460;42.662;23.288;2023-05-01T08:48:36;94653.78;;;29.62;25.15
3832;BME280;12460;42.662;23.288;2023-05-01T09:03:43;94651.94;;;26.65;26.02
3832;BME280;12460;42.662;23.288;2023-05-01T09:18:49;94638.47;;;26.01;27.45
3832;BME280;12460;42.662;23.288;2023-05-01T09:34:04;94638.19;;;26.64;26.50
3832;BME280;12460;42.662;23.288;2023-05-01T09:49:09;94646.34;;;26.22;29.03
3832;BME280;12460;42.662;23.288;2023-05-01T10:04:13;94629.34;;;27.64;26.36
3832;BME280;12460;42.662;23.288;2023-05-01T10:19:18;94618.03;;;27.45;25.72
3832;BME280;12460;42.662;23.288;2023-05-01T10:34:24;94624.66;;;26.45;27.50
3832;BME280;12460;42.662;23.288;2023-05-01T10:50:05;94631.63;;;23.50;30.91
3832;BME280;12460;42.662;23.288;2023-05-01T11:05:12;94620.41;;;22.88;32.82
3832;BME280;12460;42.662;23.288;2023-05-01T11:35:32;94613.28;;;20.61;36.47
3832;BME280;12460;42.662;23.288;2023-05-01T11:50:37;94625.19;;;20.98;36.07
3832;BME280;12460;42.662;23.288;2023-05-01T12:05:43;94613.56;;;21.52;35.02
3832;BME280;12460;42.662;23.288;2023-05-01T12:20:52;94624.84;;;20.76;35.79
3832;BME280;12460;42.662;23.288;2023-05-01T12:36:08;94631.22;;;20.34;36.29
3832;BME280;12460;42.662;23.288;2023-05-01T12:51:19;94623.16;;;21.43;34.46
3832;BME280;12460;42.662;23.288;2023-05-01T13:06:32;94609.28;;;21.38;32.82
3832;BME280;12460;42.662;23.288;2023-05-01T13:21:45;94638.25;;;21.30;34.13
3832;BME280;12460;42.662;23.288;2023-05-01T13:36:51;94664.19;;;21.05;37.25
3832;BME280;12460;42.662;23.288;2023-05-01T13:51:56;94669.69;;;20.19;38.10
3832;BME280;12460;42.662;23.288;2023-05-01T14:07:00;94656.91;;;19.68;38.73
3832;BME280;12460;42.662;23.288;2023-05-01T14:22:08;94658.25;;;19.92;39.20
3832;BME280;12460;42.662;23.288;2023-05-01T14:37:13;94654.47;;;19.63;40.24
3832;BME280;12460;42.662;23.288;2023-05-01T14:52:21;94649.28;;;19.34;39.40
3832;BME280;12460;42.662;23.288;2023-05-01T15:07:25;94643.41;;;19.43;38.87
3832;BME280;12460;42.662;23.288;2023-05-01T15:22:29;94647.06;;;19.58;39.10
3832;BME280;12460;42.662;23.288;2023-05-01T15:37:34;94631.25;;;19.43;39.10
3832;BME280;12460;42.662;23.288;2023-05-01T15:52:39;94656.09;;;19.04;39.90
3832;BME280;12460;42.662;23.288;2023-05-01T16:07:44;94628.41;;;19.18;39.60
3832;BME280;12460;42.662;23.288;2023-05-01T16:22:49;94645.97;;;19.01;40.52
3832;BME280;12460;42.662;23.288;2023-05-01T16:37:55;94662.72;;;18.46;41.70
3832;BME280;12460;42.662;23.288;2023-05-01T16:52:59;94693.69;;;18.17;42.20
3832;BME280;12460;42.662;23.288;2023-05-01T17:08:04;94685.59;;;17.90;43.73
3832;BME280;12460;42.662;23.288;2023-05-01T17:23:09;94690.53;;;17.67;43.72
3832;BME280;12460;42.662;23.288;2023-05-01T17:38:14;94717.75;;;17.37;43.33
3832;BME280;12460;42.662;23.288;2023-05-01T17:53:20;94735.38;;;17.24;43.13
3832;BME280;12460;42.662;23.288;2023-05-01T18:08:26;94733.44;;;17.05;43.56
3832;BME280;12460;42.662;23.288;2023-05-01T18:23:31;94756.91;;;16.85;44.60
3832;BME280;12460;42.662;23.288;2023-05-01T18:38:34;94776.56;;;16.40;46.74
3832;BME280;12460;42.662;23.288;2023-05-01T18:53:38;94784.75;;;16.15;46.93
3832;BME280;12460;42.662;23.288;2023-05-01T19:08:43;94803.88;;;16.15;47.20
3832;BME280;12460;42.662;23.288;2023-05-01T19:23:48;94799.00;;;15.96;48.05
3832;BME280;12460;42.662;23.288;2023-05-01T19:38:54;94808.41;;;15.89;47.19
3832;BME280;12460;42.662;23.288;2023-05-01T19:53:58;94811.91;;;15.68;48.55
3832;BME280;12460;42.662;23.288;2023-05-01T20:09:04;94816.72;;;15.56;49.28
3832;BME280;12460;42.662;23.288;2023-05-01T20:24:09;94823.84;;;15.19;50.67
3832;BME280;12460;42.662;23.288;2023-05-01T20:39:14;94815.63;;;15.23;49.93
3832;BME280;12460;42.662;23.288;2023-05-01T20:54:19;94821.28;;;15.13;50.14
3832;BME280;12460;42.662;23.288;2023-05-01T21:09:24;94832.91;;;15.17;50.11
3832;BME280;12460;42.662;23.288;2023-05-01T21:24:31;94820.69;;;15.05;50.37
3832;BME280;12460;42.662;23.288;2023-05-01T21:39:35;94834.13;;;15.05;51.32
3832;BME280;12460;42.662;23.288;2023-05-01T21:54:40;94857.91;;;14.73;52.18
3832;BME280;12460;42.662;23.288;2023-05-01T22:09:44;94870.28;;;14.41;53.23
3832;BME280;12460;42.662;23.288;2023-05-01T22:24:49;94875.44;;;14.09;53.91
3832;BME280;12460;42.662;23.288;2023-05-01T22:39:54;94868.63;;;13.85;55.47
3832;BME280;12460;42.662;23.288;2023-05-01T22:54:58;94863.00;;;13.68;56.03
3832;BME280;12460;42.662;23.288;2023-05-01T23:10:04;94861.75;;;13.61;56.47
3832;BME280;12460;42.662;23.288;2023-05-01T23:25:11;94844.28;;;13.72;56.35
3832;BME280;12460;42.662;23.288;2023-05-01T23:40:18;94851.16;;;13.79;55.80
3832;BME280;12460;42.662;23.288;2023-05-01T23:55:22;94834.94;;;13.53;56.81
